Weather at Mallow International Airport [CLOSED]

Public forecast

Using degrees Celsius for public forecast. Weather courtesy of forecast.io.

Closest aviation weather report (METAR) to Mallow International Airport

Closest report is Cork Airport, 18.9 nm (35.0 km) SSE.

2022/11/27 02:00 (retrieved 29 minutes ago)

EICK 270200Z 21011KT 9999 FEW022 SCT026 BKN240 08/06 Q1008 NOSIG

Closest aviation forecast (TAF) to Mallow International Airport

Forecast is more than 6 hours old.

Closest forecast is Ireland West Knock Airport, 106.9 nm (198.0 km) N.

2022/11/26 16:39 (retrieved 10 hours ago)

TAF TAF EIKN 261632Z 2616/2712 CNL